Summit Avenue, New Jersey
Current Conditions -  °F | °C
As of 1:51 PM on Friday 28 Nov 2014 (Local Time) from KNYC Reporting Station
Broken Clouds Broken Clouds  
Wind Chill: 30°   Ceiling: 4600
Heat Index: 36°   Visibility: 10mi
Dew Point: 17°   Wind: 7mph
Humidity: 46%   Direction: NA
Pressure: 30.18"   Gusts: 18mph
Location:  40.7693°N, 74.0322°W
Report Text: KNYC 281851Z AUTO VRB06G16KT 10SM BKN046 02/M08 A3018 RMK AO2 SLP213 T00221083 $
Loading
Personal Weather Stations






























Interactive Weather Map New forecast layout! Learn more

10-Day Weather Forecast

Advertisements
Track Severe Weather on mobile